createdAt,value
2022-08-23T00:01:21.159Z,76483.31
2022-08-23T00:03:51.052Z,76467.44
2022-08-23T00:06:18.461Z,76467.44
2022-08-23T00:08:49.139Z,76475.38
2022-08-23T00:11:38.289Z,76471.41
2022-08-23T00:14:11.163Z,76479.34
2022-08-23T00:16:38.828Z,76477.38
2022-08-23T00:19:07.591Z,76469.41
2022-08-23T00:21:36.546Z,76477.38
2022-08-23T00:24:04.914Z,76469.41
2022-08-23T00:27:00.053Z,76457.50
2022-08-23T00:29:38.687Z,76457.50
2022-08-23T00:32:08.435Z,76447.56
2022-08-23T00:34:36.664Z,76447.56
2022-08-23T00:37:04.173Z,76439.59
2022-08-23T00:39:31.077Z,76447.56
2022-08-23T00:42:30.843Z,76449.53
2022-08-23T00:45:18.494Z,76463.44
2022-08-23T00:47:45.853Z,76459.47
2022-08-23T00:50:29.870Z,76455.50
2022-08-23T00:52:56.428Z,76471.41
2022-08-23T00:55:24.731Z,76475.38
2022-08-23T00:57:52.162Z,76469.41
2022-08-23T01:00:19.356Z,76475.38
2022-08-23T01:02:50.435Z,76479.34
2022-08-23T01:05:17.383Z,76491.28
2022-08-23T01:07:55.520Z,76485.31
2022-08-23T01:10:30.179Z,76493.25
2022-08-23T01:13:08.552Z,76499.22
2022-08-23T01:15:41.304Z,76501.22
2022-08-23T01:18:10.736Z,76497.22
2022-08-23T01:20:44.094Z,76471.41
2022-08-23T01:23:41.454Z,76473.38
2022-08-23T01:26:09.301Z,76473.38
2022-08-23T01:28:36.619Z,76465.44
2022-08-23T01:31:04.083Z,76441.59
2022-08-23T01:33:34.058Z,76435.63
2022-08-23T01:36:01.564Z,76423.72
2022-08-23T01:38:32.790Z,76445.56
2022-08-23T01:41:00.104Z,76447.56
2022-08-23T01:43:27.063Z,76451.53
2022-08-23T01:45:53.680Z,76463.44
2022-08-23T01:48:21.756Z,76455.50
2022-08-23T01:50:48.363Z,76467.44
2022-08-23T01:53:15.315Z,76481.34
2022-08-23T01:55:43.139Z,76465.44
2022-08-23T01:58:09.967Z,76481.34
2022-08-23T02:00:39.872Z,76477.38
2022-08-23T02:03:07.434Z,76477.38
2022-08-23T02:05:37.218Z,76483.31
2022-08-23T02:08:24.386Z,76465.44
2022-08-23T02:10:50.995Z,76465.44
2022-08-23T02:13:17.820Z,76459.47
2022-08-23T02:15:46.917Z,76433.66
2022-08-23T02:18:14.008Z,76445.56
2022-08-23T02:20:48.983Z,76435.63
2022-08-23T02:23:16.240Z,76445.56
2022-08-23T02:25:43.793Z,76463.44
2022-08-23T02:28:10.445Z,76467.44
2022-08-23T02:30:36.980Z,76473.38
2022-08-23T02:33:04.442Z,76483.31
2022-08-23T02:35:33.763Z,76489.28
2022-08-23T02:38:05.866Z,76485.31
2022-08-23T02:40:32.809Z,76457.50
2022-08-23T02:43:00.164Z,76459.47
2022-08-23T02:45:28.026Z,76455.50
2022-08-23T02:47:57.206Z,76453.50
2022-08-23T02:50:24.378Z,76447.56
2022-08-23T02:52:50.910Z,76459.47
2022-08-23T02:55:17.511Z,76447.56
2022-08-23T02:57:44.227Z,76459.47
2022-08-23T03:00:13.484Z,76467.44
2022-08-23T03:02:40.802Z,76459.47
2022-08-23T03:05:08.404Z,76465.44
2022-08-23T03:07:35.087Z,76463.44
2022-08-23T03:10:03.097Z,76451.53
2022-08-23T03:12:29.567Z,76459.47
2022-08-23T03:14:56.359Z,76463.44
2022-08-23T03:17:24.132Z,76461.47
2022-08-23T03:19:52.379Z,76459.47
2022-08-23T03:22:19.525Z,76459.47
2022-08-23T03:24:46.705Z,76467.44
2022-08-23T03:27:14.572Z,76473.38
2022-08-23T03:29:41.136Z,76483.31
2022-08-23T03:32:07.762Z,76477.38
2022-08-23T03:34:34.967Z,76481.34
2022-08-23T03:37:01.530Z,76481.34
2022-08-23T03:39:28.144Z,76481.34
2022-08-23T03:41:54.663Z,76479.34
2022-08-23T03:44:21.212Z,76477.38
2022-08-23T03:46:48.964Z,76479.34
2022-08-23T03:49:15.564Z,76483.31
2022-08-23T03:51:42.280Z,76491.28
2022-08-23T03:54:08.953Z,76501.22
2022-08-23T03:56:53.179Z,76483.31
2022-08-23T03:59:20.292Z,76495.25
2022-08-23T04:01:47.248Z,76505.19
2022-08-23T04:04:14.213Z,76497.22
2022-08-23T04:06:41.489Z,76487.28
2022-08-23T04:09:08.091Z,76499.22
2022-08-23T04:11:34.591Z,76499.22
2022-08-23T04:14:01.347Z,76495.25
2022-08-23T04:16:29.223Z,76495.25
2022-08-23T04:18:55.792Z,76493.25
2022-08-23T04:21:23.714Z,76479.34
2022-08-23T04:23:50.336Z,76483.31
2022-08-23T04:26:16.971Z,76485.31
2022-08-23T04:28:43.482Z,76475.38
2022-08-23T04:31:10.180Z,76485.31
2022-08-23T04:33:40.562Z,76485.31
2022-08-23T04:36:07.742Z,76493.25
2022-08-23T04:38:34.326Z,76491.28
2022-08-23T04:41:19.622Z,76479.34
2022-08-23T04:43:46.369Z,76483.31
2022-08-23T04:46:16.371Z,76479.34
2022-08-23T04:48:44.539Z,76475.38
2022-08-23T04:51:12.092Z,76481.34
2022-08-23T04:53:39.539Z,76485.31
2022-08-23T04:56:07.239Z,76475.38
2022-08-23T04:58:35.531Z,76473.38
2022-08-23T05:01:04.968Z,76463.44
2022-08-23T05:03:34.381Z,76457.50
2022-08-23T05:06:04.355Z,76457.50
2022-08-23T05:08:32.087Z,76453.50
2022-08-23T05:11:03.147Z,76455.50
2022-08-23T05:13:30.315Z,76447.56
2022-08-23T05:15:59.614Z,76443.59
2022-08-23T05:18:27.121Z,76447.56
2022-08-23T05:20:53.682Z,76455.50
2022-08-23T05:23:20.605Z,76449.53
2022-08-23T05:25:54.525Z,76457.50
2022-08-23T05:28:24.379Z,76439.59
2022-08-23T05:31:07.120Z,76457.50
2022-08-23T05:33:40.627Z,76439.59
2022-08-23T05:36:08.363Z,76429.66
2022-08-23T05:38:35.451Z,76441.59
2022-08-23T05:41:02.322Z,76431.66
2022-08-23T05:43:32.344Z,76421.72
2022-08-23T05:46:07.516Z,76413.78
2022-08-23T05:48:41.300Z,76411.78
2022-08-23T05:51:16.652Z,76411.78
2022-08-23T05:53:44.465Z,76413.78
2022-08-23T05:56:21.695Z,76411.78
2022-08-23T05:58:50.627Z,76403.84
2022-08-23T06:01:20.085Z,76401.84
2022-08-23T06:03:47.679Z,76380.00
2022-08-23T06:06:15.751Z,76381.97
2022-08-23T06:08:45.095Z,76374.03
2022-08-23T06:11:17.070Z,76378.00
2022-08-23T06:13:55.630Z,76380.00
2022-08-23T06:16:29.194Z,76372.03
2022-08-23T06:18:57.719Z,76366.09
2022-08-23T06:21:26.516Z,76380.00
2022-08-23T06:23:53.393Z,76368.06
2022-08-23T06:26:23.551Z,76354.16
2022-08-23T06:28:52.769Z,76362.09
2022-08-23T06:31:41.049Z,76360.13
2022-08-23T06:34:10.608Z,76360.13
2022-08-23T06:36:37.418Z,76346.22
2022-08-23T06:39:07.312Z,76328.34
2022-08-23T06:41:34.260Z,76304.50
2022-08-23T06:44:00.881Z,76324.34
2022-08-23T06:46:29.365Z,76316.41
2022-08-23T06:48:57.725Z,76326.34
2022-08-23T06:51:29.168Z,76308.47
2022-08-23T06:53:58.027Z,76296.53
2022-08-23T06:56:30.035Z,76296.53
2022-08-23T06:58:56.888Z,76298.53
2022-08-23T07:01:45.614Z,76290.56
2022-08-23T07:04:16.749Z,76290.56
2022-08-23T07:06:43.498Z,76262.75
2022-08-23T07:09:10.215Z,76256.78
2022-08-23T07:11:36.960Z,76280.66
2022-08-23T07:14:07.516Z,76266.72
2022-08-23T07:16:36.277Z,76250.84
2022-08-23T07:19:04.434Z,76223.03
2022-08-23T07:21:31.995Z,76211.09
2022-08-23T07:23:58.518Z,76213.09
2022-08-23T07:26:25.827Z,76215.06
2022-08-23T07:28:54.459Z,76227.00
2022-08-23T07:31:32.669Z,76223.03
2022-08-23T07:34:02.313Z,76225.00
2022-08-23T07:36:30.559Z,76217.06
2022-08-23T07:38:58.178Z,76219.03
2022-08-23T07:41:31.063Z,76217.06
2022-08-23T07:44:03.934Z,76193.22
2022-08-23T07:46:33.041Z,76179.31
2022-08-23T07:49:01.583Z,76175.34
2022-08-23T07:51:30.867Z,76157.44
2022-08-23T07:53:58.302Z,76181.28
2022-08-23T07:56:25.486Z,76175.34
2022-08-23T07:58:52.783Z,76193.22
2022-08-23T08:01:23.757Z,76171.34
2022-08-23T08:03:55.066Z,76171.34
2022-08-23T08:06:59.874Z,76173.34
2022-08-23T08:09:26.839Z,76179.31
2022-08-23T08:11:53.477Z,76185.25
2022-08-23T08:14:20.087Z,76189.25
2022-08-23T08:16:49.878Z,76203.16
2022-08-23T08:19:19.801Z,76205.13
2022-08-23T08:21:48.337Z,76207.13
2022-08-23T08:24:17.285Z,76205.13
2022-08-23T08:26:45.003Z,76187.25
2022-08-23T08:29:13.358Z,76193.22
2022-08-23T08:31:42.272Z,76187.25
2022-08-23T08:34:09.959Z,76173.34
2022-08-23T08:36:45.659Z,76185.25
2022-08-23T08:39:15.690Z,76163.41
2022-08-23T08:42:04.533Z,76167.38
2022-08-23T08:44:31.548Z,76173.34
2022-08-23T08:46:58.275Z,76145.53
2022-08-23T08:49:35.096Z,76157.44
2022-08-23T08:52:15.333Z,76143.53
2022-08-23T08:54:48.034Z,76135.59
2022-08-23T08:57:25.236Z,76133.59
2022-08-23T09:00:01.948Z,76129.63
2022-08-23T09:02:34.783Z,76119.69
2022-08-23T09:05:06.969Z,76101.81
2022-08-23T09:07:53.970Z,76097.84
2022-08-23T09:10:58.993Z,76099.81
2022-08-23T09:14:03.286Z,76103.81
2022-08-23T09:16:45.159Z,76097.84
2022-08-23T09:19:12.968Z,76087.91
2022-08-23T09:21:56.360Z,76070.03
2022-08-23T09:24:23.050Z,76066.06
2022-08-23T09:26:50.411Z,76079.97
2022-08-23T09:29:35.350Z,76068.03
2022-08-23T09:32:06.182Z,76079.97
2022-08-23T09:34:33.703Z,76072.00
2022-08-23T09:37:11.581Z,76066.06
2022-08-23T09:39:42.410Z,76062.06
2022-08-23T09:42:27.315Z,76058.09
2022-08-23T09:44:54.343Z,76018.38
2022-08-23T09:47:34.977Z,76008.44
2022-08-23T09:50:16.134Z,76006.44
2022-08-23T09:52:43.332Z,75994.53
2022-08-23T09:55:26.692Z,75974.66
2022-08-23T09:57:53.655Z,75994.53
2022-08-23T10:00:30.778Z,75976.66
2022-08-23T10:03:20.102Z,75964.72
2022-08-23T10:05:52.882Z,75944.84
2022-08-23T10:08:27.360Z,75913.06
2022-08-23T10:10:59.998Z,75903.13
2022-08-23T10:13:27.159Z,75875.31
2022-08-23T10:16:04.758Z,75883.25
2022-08-23T10:18:31.258Z,75855.44
2022-08-23T10:21:11.260Z,75845.50
2022-08-23T10:24:12.855Z,75829.63
2022-08-23T10:27:27.248Z,75861.41
2022-08-23T10:30:05.342Z,75871.34
2022-08-23T10:32:54.843Z,75851.47
2022-08-23T10:35:30.461Z,75859.41
2022-08-23T10:38:26.303Z,75861.41
2022-08-23T10:41:11.558Z,75867.38
2022-08-23T10:44:15.482Z,75877.31
2022-08-23T10:46:57.934Z,75895.19
2022-08-23T10:49:26.665Z,75909.09
2022-08-23T10:51:53.676Z,75883.25
2022-08-23T10:54:59.818Z,75891.22
2022-08-23T10:57:40.039Z,75859.41
2022-08-23T11:00:16.543Z,75851.47
2022-08-23T11:03:04.838Z,75855.44
2022-08-23T11:05:35.504Z,75857.44
2022-08-23T11:08:08.299Z,75833.59
2022-08-23T11:10:56.070Z,75793.84
2022-08-23T11:13:32.075Z,75756.13
2022-08-23T11:16:25.389Z,75781.94
2022-08-23T11:18:51.935Z,75801.81
2022-08-23T11:21:18.418Z,75785.91
2022-08-23T11:23:51.868Z,75789.88
2022-08-23T11:26:27.574Z,75744.19
2022-08-23T11:29:06.241Z,75708.44
2022-08-23T11:31:37.767Z,75674.66
2022-08-23T11:34:29.545Z,75682.59
2022-08-23T11:37:22.100Z,75658.75
2022-08-23T11:39:57.917Z,75668.69
2022-08-23T11:42:52.587Z,75664.72
2022-08-23T11:45:52.443Z,75682.59
2022-08-23T11:48:37.480Z,75650.81
2022-08-23T11:51:27.415Z,75640.88
2022-08-23T11:53:53.831Z,75644.84
2022-08-23T11:56:26.640Z,75666.72
2022-08-23T11:59:08.844Z,75678.63
2022-08-23T12:01:38.322Z,75680.63
2022-08-23T12:04:13.822Z,75670.69
2022-08-23T12:06:51.165Z,75684.59
2022-08-23T12:09:21.134Z,75704.47
2022-08-23T12:11:56.857Z,75732.28
2022-08-23T12:14:32.775Z,75728.31
2022-08-23T12:17:05.580Z,75752.13
2022-08-23T12:19:43.028Z,75746.19
2022-08-23T12:22:23.505Z,75754.13
2022-08-23T12:24:57.240Z,75752.13
2022-08-23T12:27:32.414Z,75738.22
2022-08-23T12:30:05.429Z,75722.34
2022-08-23T12:32:41.027Z,75714.41
2022-08-23T12:35:33.781Z,75682.59
2022-08-23T12:38:19.870Z,75670.69
2022-08-23T12:40:50.726Z,75666.72
2022-08-23T12:43:24.439Z,75621.03
2022-08-23T12:46:00.910Z,75623.00
2022-08-23T12:48:31.713Z,75664.72
2022-08-23T12:51:02.599Z,75676.66
2022-08-23T12:53:35.824Z,75640.88
2022-08-23T12:56:11.187Z,75660.75
2022-08-23T12:58:39.689Z,75632.94
2022-08-23T13:01:18.178Z,75662.75
2022-08-23T13:03:48.825Z,75656.78
2022-08-23T13:06:21.778Z,75621.03
2022-08-23T13:09:05.491Z,75628.97
2022-08-23T13:11:35.151Z,75626.97
2022-08-23T13:14:44.537Z,75634.94
2022-08-23T13:17:31.937Z,75623.00
2022-08-23T13:20:01.659Z,75597.19
2022-08-23T13:22:32.990Z,75591.22
2022-08-23T13:27:55.843Z,75561.41
2022-08-23T13:30:31.794Z,75567.38
2022-08-23T13:33:07.944Z,75601.16
2022-08-23T13:35:39.134Z,75591.22
2022-08-23T13:38:08.583Z,75555.47
2022-08-23T13:40:51.729Z,75549.50
2022-08-23T13:43:24.271Z,75567.38
2022-08-23T13:45:54.822Z,75565.41
2022-08-23T13:48:28.838Z,75563.41
2022-08-23T13:51:18.309Z,75593.22
2022-08-23T13:53:44.835Z,75605.13
2022-08-23T13:56:11.396Z,75589.22
2022-08-23T13:58:38.098Z,75563.41
2022-08-23T14:01:15.076Z,75515.72
2022-08-23T14:03:41.721Z,75515.72
2022-08-23T14:06:08.256Z,75523.69
2022-08-23T14:08:34.740Z,75503.81
2022-08-23T14:11:01.440Z,75507.78
2022-08-23T14:13:30.458Z,75477.97
2022-08-23T14:21:38.413Z,75491.88
2022-08-23T14:24:05.279Z,75517.72
2022-08-23T14:26:31.879Z,75537.59
2022-08-23T14:28:58.566Z,75599.16
2022-08-23T14:31:25.450Z,75575.31
2022-08-23T14:33:52.191Z,75593.22
2022-08-23T14:36:18.995Z,75573.34
2022-08-23T14:38:50.034Z,75585.25
2022-08-23T14:41:22.875Z,75601.16
2022-08-23T14:43:50.891Z,75638.91
2022-08-23T14:46:17.643Z,75619.03
2022-08-23T14:48:44.179Z,75617.03
2022-08-23T14:51:24.182Z,75593.22
2022-08-23T14:53:51.075Z,75531.63
2022-08-23T14:56:21.508Z,75513.75
2022-08-23T14:58:49.794Z,75491.88
2022-08-23T15:01:17.572Z,75420.38
2022-08-23T15:03:45.794Z,75334.97
2022-08-23T15:06:14.883Z,75231.66
2022-08-23T15:08:42.176Z,75160.16
2022-08-23T15:13:56.789Z,75313.09
2022-08-23T15:16:26.601Z,75420.38
2022-08-23T15:18:53.417Z,75450.16
2022-08-23T15:21:20.526Z,75456.13
2022-08-23T15:23:47.443Z,75460.09
2022-08-23T15:26:19.316Z,75472.03
2022-08-23T15:28:46.392Z,75491.88
2022-08-23T15:31:14.788Z,75378.66
2022-08-23T15:33:42.088Z,75114.47
2022-08-23T15:36:11.552Z,75011.19
2022-08-23T15:38:41.389Z,74816.53
2022-08-23T15:41:08.159Z,74699.34
2022-08-23T15:43:39.518Z,74649.69
2022-08-23T15:46:16.699Z,74580.19
2022-08-23T15:48:51.205Z,74596.06
2022-08-23T15:51:19.175Z,74617.91
2022-08-23T15:53:46.468Z,74822.50
2022-08-23T15:56:18.355Z,74927.75
2022-08-23T15:58:45.572Z,74957.56
2022-08-23T16:01:12.385Z,75068.78
2022-08-23T16:03:42.444Z,75207.81
2022-08-23T16:06:13.626Z,75323.03
2022-08-23T16:08:49.116Z,75442.22
2022-08-23T16:11:15.685Z,75509.78
2022-08-23T16:13:44.921Z,75539.56
2022-08-23T16:16:23.188Z,75583.28
2022-08-23T16:18:53.229Z,75617.03
2022-08-23T16:21:21.616Z,75632.94
2022-08-23T16:23:48.149Z,75656.78
2022-08-23T16:26:21.499Z,75680.63
2022-08-23T16:28:50.895Z,75694.53
2022-08-23T16:31:18.404Z,75706.44
2022-08-23T16:33:47.704Z,75712.41
2022-08-23T16:36:17.969Z,75714.41
2022-08-23T16:38:44.959Z,75724.31
2022-08-23T16:41:13.578Z,75720.34
2022-08-23T16:43:40.466Z,75744.19
2022-08-23T16:46:07.393Z,75758.09
2022-08-23T16:48:34.379Z,75772.00
2022-08-23T16:51:01.120Z,75775.97
2022-08-23T16:53:27.695Z,75768.03
2022-08-23T16:55:54.364Z,75785.91
2022-08-23T16:58:21.550Z,75797.84
2022-08-23T17:00:50.567Z,75807.75
2022-08-23T17:03:19.281Z,75809.75
2022-08-23T17:05:46.853Z,75823.66
2022-08-23T17:08:13.456Z,75823.66
2022-08-23T17:10:40.945Z,75843.53
2022-08-23T17:13:08.611Z,75853.47
2022-08-23T17:15:37.124Z,75869.34
2022-08-23T17:18:04.416Z,75865.38
2022-08-23T17:20:34.856Z,75869.34
2022-08-23T17:23:02.047Z,75883.25
2022-08-23T17:25:32.721Z,75887.22
2022-08-23T17:27:59.756Z,75893.19
2022-08-23T17:30:27.140Z,75913.06
2022-08-23T17:32:54.116Z,75921.00
2022-08-23T17:35:24.660Z,75932.94
2022-08-23T17:37:52.019Z,75936.91
2022-08-23T17:40:24.477Z,75938.91
2022-08-23T17:42:51.257Z,75936.91
2022-08-23T17:45:19.285Z,75950.81
2022-08-23T17:47:46.152Z,75956.78
2022-08-23T17:50:14.298Z,75972.66
2022-08-23T17:52:41.395Z,75984.59
2022-08-23T17:55:10.649Z,76002.47
2022-08-23T17:57:38.546Z,76014.41
2022-08-23T18:00:08.467Z,76040.22
2022-08-23T18:02:35.028Z,76052.16
2022-08-23T18:05:02.999Z,76062.06
2022-08-23T18:07:30.791Z,76076.00
2022-08-23T18:09:57.743Z,76091.88
2022-08-23T18:12:24.636Z,76099.81
2022-08-23T18:14:51.686Z,76113.75
2022-08-23T18:17:18.394Z,76125.66
2022-08-23T18:19:45.271Z,76141.56
2022-08-23T18:22:11.961Z,76153.47
2022-08-23T18:24:38.541Z,76163.41
2022-08-23T18:27:24.446Z,76167.38
2022-08-23T18:29:51.416Z,76173.34
2022-08-23T18:32:20.604Z,76191.22
2022-08-23T18:34:49.549Z,76195.19
2022-08-23T18:37:21.715Z,76199.19
2022-08-23T18:39:49.088Z,76209.09
2022-08-23T18:42:16.381Z,76217.06
2022-08-23T18:44:43.303Z,76228.97
2022-08-23T18:47:10.032Z,76240.91
2022-08-23T18:49:38.754Z,76242.88
2022-08-23T18:52:06.535Z,76250.84
2022-08-23T18:54:35.761Z,76244.88
2022-08-23T18:57:03.656Z,76260.78
2022-08-23T18:59:30.652Z,76276.66
2022-08-23T19:01:57.647Z,76282.63
2022-08-23T19:04:24.390Z,76280.66
2022-08-23T19:06:54.351Z,76296.53
2022-08-23T19:09:21.360Z,76294.56
2022-08-23T19:11:48.037Z,76306.47
2022-08-23T19:14:14.781Z,76318.41
2022-08-23T19:16:47.339Z,76326.34
2022-08-23T19:19:15.384Z,76328.34
2022-08-23T19:21:42.043Z,76342.25
2022-08-23T19:24:08.569Z,76350.19
2022-08-23T19:26:36.299Z,76358.13
2022-08-23T19:29:07.558Z,76370.06
2022-08-23T19:31:41.076Z,76376.03
2022-08-23T19:34:09.288Z,76393.91
2022-08-23T19:36:46.410Z,76397.88
2022-08-23T19:39:16.035Z,76397.88
2022-08-23T19:41:42.631Z,76407.81
2022-08-23T19:44:09.859Z,76415.75
2022-08-23T19:46:41.132Z,76421.72
2022-08-23T19:49:10.482Z,76419.72
2022-08-23T19:51:38.100Z,76423.72
2022-08-23T19:54:11.170Z,76429.66
2022-08-23T19:56:43.295Z,76427.69
2022-08-23T19:59:15.232Z,76435.63
2022-08-23T20:01:42.414Z,76429.66
2022-08-23T20:04:09.045Z,76435.63
2022-08-23T20:06:35.739Z,76435.63
2022-08-23T20:09:04.737Z,76433.66
2022-08-23T20:11:32.421Z,76441.59
2022-08-23T20:14:00.228Z,76439.59
2022-08-23T20:16:27.645Z,76455.50
2022-08-23T20:18:55.336Z,76459.47
2022-08-23T20:21:23.836Z,76455.50
2022-08-23T20:24:04.318Z,76465.44
2022-08-23T20:26:40.521Z,76475.38
2022-08-23T20:29:10.239Z,76485.31
2022-08-23T20:31:56.475Z,76487.28
2022-08-23T20:34:26.553Z,76487.28
2022-08-23T20:36:55.965Z,76495.25
2022-08-23T20:39:24.207Z,76507.16
2022-08-23T20:41:52.304Z,76511.16
2022-08-23T20:44:20.816Z,76515.13
2022-08-23T20:46:53.974Z,76517.09
2022-08-23T20:49:22.883Z,76513.13
2022-08-23T20:51:51.262Z,76519.09
2022-08-23T20:54:18.374Z,76523.06
2022-08-23T20:56:45.132Z,76525.06
2022-08-23T20:59:13.036Z,76525.06
2022-08-23T21:01:42.693Z,76533.00
2022-08-23T21:04:12.675Z,76540.94
2022-08-23T21:06:46.000Z,76538.97
2022-08-23T21:09:46.488Z,76544.94
2022-08-23T21:14:54.132Z,76556.84
2022-08-23T21:17:20.635Z,76544.94
2022-08-23T21:19:47.168Z,76556.84
2022-08-23T21:22:13.663Z,76558.84
2022-08-23T21:24:40.312Z,76560.81
2022-08-23T21:27:09.914Z,76560.81
2022-08-23T21:29:37.764Z,76550.88
2022-08-23T21:32:07.340Z,76560.81
2022-08-23T21:34:34.657Z,76568.78
2022-08-23T21:37:01.325Z,76574.72
2022-08-23T21:39:28.621Z,76578.72
2022-08-23T21:41:57.400Z,76572.75
2022-08-23T21:44:25.411Z,76578.72
2022-08-23T21:46:52.371Z,76582.69
2022-08-23T21:49:22.058Z,76586.66
2022-08-23T21:51:51.594Z,76580.69
2022-08-23T21:54:18.357Z,76574.72
2022-08-23T21:56:46.209Z,76576.72
2022-08-23T21:59:16.763Z,76580.69
2022-08-23T22:01:44.139Z,76586.66
2022-08-23T22:04:13.388Z,76598.56
2022-08-23T22:06:45.367Z,76598.56
2022-08-23T22:09:16.268Z,76606.53
2022-08-23T22:11:45.337Z,76604.53
2022-08-23T22:14:16.586Z,76616.47
2022-08-23T22:16:45.992Z,76610.50
2022-08-23T22:19:15.166Z,76612.50
2022-08-23T22:21:43.681Z,76612.50
2022-08-23T22:24:12.989Z,76620.44
2022-08-23T22:26:41.111Z,76630.38
2022-08-23T22:29:08.815Z,76624.41
2022-08-23T22:31:36.442Z,76634.34
2022-08-23T22:34:04.002Z,76646.28
2022-08-23T22:36:31.168Z,76652.22
2022-08-23T22:38:58.061Z,76656.22
2022-08-23T22:41:27.753Z,76664.16
2022-08-23T22:43:56.332Z,76670.13
2022-08-23T22:46:23.907Z,76672.09
2022-08-23T22:48:50.668Z,76678.06
2022-08-23T22:51:21.422Z,76680.06
2022-08-23T22:53:53.509Z,76682.03
2022-08-23T22:56:26.742Z,76684.03
2022-08-23T22:58:53.771Z,76684.03
2022-08-23T23:01:26.631Z,76686.00
2022-08-23T23:03:55.539Z,76684.03
2022-08-23T23:06:22.954Z,76676.06
2022-08-23T23:08:49.788Z,76678.06
2022-08-23T23:11:17.837Z,76693.97
2022-08-23T23:13:44.660Z,76697.94
2022-08-23T23:16:15.202Z,76693.97
2022-08-23T23:19:03.438Z,76691.97
2022-08-23T23:21:57.283Z,76703.91
2022-08-23T23:24:33.135Z,76697.94
2022-08-23T23:27:01.016Z,76686.00
2022-08-23T23:29:29.673Z,76697.94
2022-08-23T23:31:56.959Z,76684.03
2022-08-23T23:34:23.880Z,76686.00
2022-08-23T23:36:55.911Z,76695.94
2022-08-23T23:39:23.354Z,76695.94
2022-08-23T23:41:50.731Z,76691.97
2022-08-23T23:44:17.322Z,76695.94
2022-08-23T23:46:51.213Z,76705.88
2022-08-23T23:49:17.787Z,76709.88
2022-08-23T23:51:53.788Z,76711.84
2022-08-23T23:54:21.265Z,76717.81
2022-08-23T23:56:47.763Z,76723.78
2022-08-23T23:59:14.347Z,76719.81
